sensor_id;sensor_type;location;lat;lon;timestamp;P1;P2;P0
72307;PMS5003;60257;42.638;23.376;2023-07-29T00:02:00;12.00;11.25;7.25
72307;PMS5003;60257;42.638;23.376;2023-07-29T00:04:25;12.00;10.75;5.75
72307;PMS5003;60257;42.638;23.376;2023-07-29T00:06:51;10.25;10.00;5.25
72307;PMS5003;60257;42.638;23.376;2023-07-29T00:09:16;7.00;7.00;5.00
72307;PMS5003;60257;42.638;23.376;2023-07-29T00:11:42;6.50;6.50;4.00
72307;PMS5003;60257;42.638;23.376;2023-07-29T00:14:07;10.50;10.50;6.00
72307;PMS5003;60257;42.638;23.376;2023-07-29T00:16:33;9.25;9.25;5.25
72307;PMS5003;60257;42.638;23.376;2023-07-29T00:18:58;9.25;8.50;5.75
72307;PMS5003;60257;42.638;23.376;2023-07-29T00:21:24;7.00;7.00;4.25
72307;PMS5003;60257;42.638;23.376;2023-07-29T00:23:49;7.75;7.75;4.00
72307;PMS5003;60257;42.638;23.376;2023-07-29T00:26:15;7.25;7.25;5.50
72307;PMS5003;60257;42.638;23.376;2023-07-29T00:28:40;8.75;7.25;4.75
72307;PMS5003;60257;42.638;23.376;2023-07-29T00:31:06;9.50;9.50;4.00
72307;PMS5003;60257;42.638;23.376;2023-07-29T00:33:31;7.75;7.75;3.50
72307;PMS5003;60257;42.638;23.376;2023-07-29T00:35:57;9.75;8.50;6.00
72307;PMS5003;60257;42.638;23.376;2023-07-29T00:38:26;5.00;5.00;3.50
72307;PMS5003;60257;42.638;23.376;2023-07-29T00:40:52;11.00;11.00;5.25
72307;PMS5003;60257;42.638;23.376;2023-07-29T00:43:17;13.00;10.75;6.25
72307;PMS5003;60257;42.638;23.376;2023-07-29T00:45:43;8.00;8.00;5.75
72307;PMS5003;60257;42.638;23.376;2023-07-29T00:48:10;9.00;9.00;7.00
72307;PMS5003;60257;42.638;23.376;2023-07-29T00:50:36;11.75;11.00;7.00
72307;PMS5003;60257;42.638;23.376;2023-07-29T00:53:02;12.00;10.75;7.75
72307;PMS5003;60257;42.638;23.376;2023-07-29T00:55:27;8.75;8.75;5.00
72307;PMS5003;60257;42.638;23.376;2023-07-29T00:57:53;11.00;10.00;7.50
72307;PMS5003;60257;42.638;23.376;2023-07-29T01:00:19;4.75;4.75;2.75
72307;PMS5003;60257;42.638;23.376;2023-07-29T01:02:46;11.50;9.75;7.25
72307;PMS5003;60257;42.638;23.376;2023-07-29T01:05:12;7.25;7.25;4.25
72307;PMS5003;60257;42.638;23.376;2023-07-29T01:07:43;5.00;5.00;3.25
72307;PMS5003;60257;42.638;23.376;2023-07-29T01:10:33;8.00;8.00;6.00
72307;PMS5003;60257;42.638;23.376;2023-07-29T01:16:01;12.75;11.75;7.25
72307;PMS5003;60257;42.638;23.376;2023-07-29T01:18:35;10.25;10.25;6.50
72307;PMS5003;60257;42.638;23.376;2023-07-29T01:21:04;10.00;10.00;7.50
72307;PMS5003;60257;42.638;23.376;2023-07-29T01:23:36;10.00;9.00;6.00
72307;PMS5003;60257;42.638;23.376;2023-07-29T01:26:02;8.75;8.50;5.50
72307;PMS5003;60257;42.638;23.376;2023-07-29T01:28:28;10.75;9.25;6.00
72307;PMS5003;60257;42.638;23.376;2023-07-29T01:31:03;9.00;9.00;5.75
72307;PMS5003;60257;42.638;23.376;2023-07-29T01:33:40;9.00;9.00;5.50
72307;PMS5003;60257;42.638;23.376;2023-07-29T01:36:15;9.75;9.75;6.75
72307;PMS5003;60257;42.638;23.376;2023-07-29T01:38:47;10.75;10.75;7.00
72307;PMS5003;60257;42.638;23.376;2023-07-29T01:41:13;8.50;8.50;5.50
72307;PMS5003;60257;42.638;23.376;2023-07-29T01:43:39;6.00;6.00;3.50
72307;PMS5003;60257;42.638;23.376;2023-07-29T01:46:11;13.50;11.50;7.75
72307;PMS5003;60257;42.638;23.376;2023-07-29T01:48:40;13.50;11.50;8.50
72307;PMS5003;60257;42.638;23.376;2023-07-29T01:51:06;12.25;12.25;9.00
72307;PMS5003;60257;42.638;23.376;2023-07-29T01:53:32;11.25;11.25;8.00
72307;PMS5003;60257;42.638;23.376;2023-07-29T01:55:58;9.50;9.50;6.25
72307;PMS5003;60257;42.638;23.376;2023-07-29T01:58:24;6.25;5.75;2.50
72307;PMS5003;60257;42.638;23.376;2023-07-29T02:00:50;11.50;11.50;7.50
72307;PMS5003;60257;42.638;23.376;2023-07-29T02:03:15;9.00;9.00;6.75
72307;PMS5003;60257;42.638;23.376;2023-07-29T02:05:41;9.50;9.50;5.75
72307;PMS5003;60257;42.638;23.376;2023-07-29T02:08:08;10.25;10.25;7.25
72307;PMS5003;60257;42.638;23.376;2023-07-29T02:10:34;11.00;10.25;7.50
72307;PMS5003;60257;42.638;23.376;2023-07-29T02:12:59;11.75;9.75;7.25
72307;PMS5003;60257;42.638;23.376;2023-07-29T02:15:25;10.25;10.25;7.25
72307;PMS5003;60257;42.638;23.376;2023-07-29T02:17:50;11.25;9.00;7.00
72307;PMS5003;60257;42.638;23.376;2023-07-29T02:20:17;11.50;10.50;8.00
72307;PMS5003;60257;42.638;23.376;2023-07-29T02:22:43;9.00;9.00;5.75
72307;PMS5003;60257;42.638;23.376;2023-07-29T02:25:08;2.25;2.25;0.00
72307;PMS5003;60257;42.638;23.376;2023-07-29T02:27:35;9.50;9.25;6.00
72307;PMS5003;60257;42.638;23.376;2023-07-29T02:30:00;8.00;8.00;5.75
72307;PMS5003;60257;42.638;23.376;2023-07-29T02:32:26;12.50;10.00;7.00
72307;PMS5003;60257;42.638;23.376;2023-07-29T02:34:51;10.50;10.25;6.00
72307;PMS5003;60257;42.638;23.376;2023-07-29T02:37:17;8.75;8.50;5.25
72307;PMS5003;60257;42.638;23.376;2023-07-29T02:39:42;10.00;9.25;6.50
72307;PMS5003;60257;42.638;23.376;2023-07-29T02:42:07;9.25;9.25;6.00
72307;PMS5003;60257;42.638;23.376;2023-07-29T02:44:33;9.00;9.00;5.75
72307;PMS5003;60257;42.638;23.376;2023-07-29T02:46:59;11.00;11.00;6.25
72307;PMS5003;60257;42.638;23.376;2023-07-29T02:49:24;12.25;10.50;7.50
72307;PMS5003;60257;42.638;23.376;2023-07-29T02:51:50;10.00;9.50;5.75
72307;PMS5003;60257;42.638;23.376;2023-07-29T02:54:15;11.25;10.50;6.25
72307;PMS5003;60257;42.638;23.376;2023-07-29T02:56:40;9.00;9.00;6.25
72307;PMS5003;60257;42.638;23.376;2023-07-29T02:59:06;6.75;6.75;5.50
72307;PMS5003;60257;42.638;23.376;2023-07-29T03:01:31;10.00;9.00;7.00
72307;PMS5003;60257;42.638;23.376;2023-07-29T03:03:57;10.00;8.50;6.50
72307;PMS5003;60257;42.638;23.376;2023-07-29T03:06:22;11.75;11.00;7.00
72307;PMS5003;60257;42.638;23.376;2023-07-29T03:08:48;8.50;8.50;6.00
72307;PMS5003;60257;42.638;23.376;2023-07-29T03:11:14;10.00;10.00;6.75
72307;PMS5003;60257;42.638;23.376;2023-07-29T03:13:41;10.50;9.75;4.50
72307;PMS5003;60257;42.638;23.376;2023-07-29T03:16:10;14.75;12.00;8.00
72307;PMS5003;60257;42.638;23.376;2023-07-29T03:18:40;15.25;13.00;8.25
72307;PMS5003;60257;42.638;23.376;2023-07-29T03:21:07;15.75;11.75;9.00
72307;PMS5003;60257;42.638;23.376;2023-07-29T03:23:33;12.25;11.00;8.00
72307;PMS5003;60257;42.638;23.376;2023-07-29T03:26:00;10.25;8.75;5.50
72307;PMS5003;60257;42.638;23.376;2023-07-29T03:28:27;9.25;9.25;5.50
72307;PMS5003;60257;42.638;23.376;2023-07-29T03:30:54;9.00;9.00;6.50
72307;PMS5003;60257;42.638;23.376;2023-07-29T03:33:23;11.00;11.00;7.00
72307;PMS5003;60257;42.638;23.376;2023-07-29T03:35:50;14.25;11.50;7.25
72307;PMS5003;60257;42.638;23.376;2023-07-29T03:38:15;9.25;9.00;7.00
72307;PMS5003;60257;42.638;23.376;2023-07-29T03:40:41;10.75;10.75;6.00
72307;PMS5003;60257;42.638;23.376;2023-07-29T03:43:07;10.50;10.50;7.00
72307;PMS5003;60257;42.638;23.376;2023-07-29T03:45:32;9.50;8.50;5.00
72307;PMS5003;60257;42.638;23.376;2023-07-29T03:47:58;11.75;11.50;8.25
72307;PMS5003;60257;42.638;23.376;2023-07-29T03:50:24;11.50;11.50;8.00
72307;PMS5003;60257;42.638;23.376;2023-07-29T03:52:51;9.75;9.75;6.75
72307;PMS5003;60257;42.638;23.376;2023-07-29T03:55:17;11.75;11.75;7.00
72307;PMS5003;60257;42.638;23.376;2023-07-29T03:57:43;15.00;14.00;8.33
72307;PMS5003;60257;42.638;23.376;2023-07-29T04:00:08;11.75;11.75;8.00
72307;PMS5003;60257;42.638;23.376;2023-07-29T04:02:34;13.00;13.00;9.00
72307;PMS5003;60257;42.638;23.376;2023-07-29T04:05:02;11.25;11.00;7.00
72307;PMS5003;60257;42.638;23.376;2023-07-29T04:07:28;6.75;6.75;3.25
72307;PMS5003;60257;42.638;23.376;2023-07-29T04:09:54;9.00;9.00;7.00
72307;PMS5003;60257;42.638;23.376;2023-07-29T04:12:20;11.25;10.75;7.75
72307;PMS5003;60257;42.638;23.376;2023-07-29T04:14:46;15.00;15.00;10.00
72307;PMS5003;60257;42.638;23.376;2023-07-29T04:17:12;12.25;12.25;7.75
72307;PMS5003;60257;42.638;23.376;2023-07-29T04:19:38;12.75;12.75;8.00
72307;PMS5003;60257;42.638;23.376;2023-07-29T04:22:03;13.00;13.00;9.00
72307;PMS5003;60257;42.638;23.376;2023-07-29T04:24:29;9.50;9.50;7.00
72307;PMS5003;60257;42.638;23.376;2023-07-29T04:26:54;14.00;12.50;8.75
72307;PMS5003;60257;42.638;23.376;2023-07-29T04:29:20;13.50;12.75;8.25
72307;PMS5003;60257;42.638;23.376;2023-07-29T04:31:47;8.25;8.25;5.25
72307;PMS5003;60257;42.638;23.376;2023-07-29T04:34:13;15.00;13.25;11.00
72307;PMS5003;60257;42.638;23.376;2023-07-29T04:36:38;10.75;10.75;5.75
72307;PMS5003;60257;42.638;23.376;2023-07-29T04:39:04;15.00;15.00;11.00
72307;PMS5003;60257;42.638;23.376;2023-07-29T04:41:30;11.25;11.25;8.00
72307;PMS5003;60257;42.638;23.376;2023-07-29T04:43:55;13.25;13.25;8.25
72307;PMS5003;60257;42.638;23.376;2023-07-29T04:46:21;13.75;13.75;9.00
72307;PMS5003;60257;42.638;23.376;2023-07-29T04:48:46;14.00;14.00;9.00
72307;PMS5003;60257;42.638;23.376;2023-07-29T04:51:12;14.50;14.50;9.00
72307;PMS5003;60257;42.638;23.376;2023-07-29T04:53:37;9.75;9.75;7.25
72307;PMS5003;60257;42.638;23.376;2023-07-29T04:56:03;13.00;13.00;8.50
72307;PMS5003;60257;42.638;23.376;2023-07-29T04:58:29;12.50;12.50;7.75
72307;PMS5003;60257;42.638;23.376;2023-07-29T05:00:55;15.00;15.00;9.25
72307;PMS5003;60257;42.638;23.376;2023-07-29T05:03:21;15.00;14.50;9.50
72307;PMS5003;60257;42.638;23.376;2023-07-29T05:05:46;12.00;12.00;9.25
72307;PMS5003;60257;42.638;23.376;2023-07-29T05:08:12;9.75;9.75;6.25
72307;PMS5003;60257;42.638;23.376;2023-07-29T05:10:37;12.25;10.50;8.00
72307;PMS5003;60257;42.638;23.376;2023-07-29T05:13:02;16.25;13.00;8.75
72307;PMS5003;60257;42.638;23.376;2023-07-29T05:15:28;16.50;16.50;11.75
72307;PMS5003;60257;42.638;23.376;2023-07-29T05:17:53;15.00;15.00;10.00
72307;PMS5003;60257;42.638;23.376;2023-07-29T05:20:19;13.00;13.00;9.25
72307;PMS5003;60257;42.638;23.376;2023-07-29T05:22:44;12.75;12.75;9.50
72307;PMS5003;60257;42.638;23.376;2023-07-29T05:25:10;14.75;12.75;9.00
72307;PMS5003;60257;42.638;23.376;2023-07-29T05:27:35;14.50;14.50;10.00
72307;PMS5003;60257;42.638;23.376;2023-07-29T05:30:00;14.00;14.00;11.00
72307;PMS5003;60257;42.638;23.376;2023-07-29T05:32:26;15.25;13.00;10.00
72307;PMS5003;60257;42.638;23.376;2023-07-29T05:34:51;15.75;13.25;10.00
72307;PMS5003;60257;42.638;23.376;2023-07-29T05:37:17;17.25;17.25;11.00
72307;PMS5003;60257;42.638;23.376;2023-07-29T05:39:42;19.25;18.50;10.25
72307;PMS5003;60257;42.638;23.376;2023-07-29T05:42:07;13.50;13.50;9.25
72307;PMS5003;60257;42.638;23.376;2023-07-29T05:44:33;14.00;12.75;7.50
72307;PMS5003;60257;42.638;23.376;2023-07-29T05:46:58;13.00;13.00;9.25
72307;PMS5003;60257;42.638;23.376;2023-07-29T05:49:24;12.50;12.50;8.50
72307;PMS5003;60257;42.638;23.376;2023-07-29T05:51:49;17.50;17.50;11.75
72307;PMS5003;60257;42.638;23.376;2023-07-29T05:54:17;15.25;13.25;9.00
72307;PMS5003;60257;42.638;23.376;2023-07-29T05:56:43;16.75;14.75;10.00
72307;PMS5003;60257;42.638;23.376;2023-07-29T05:59:08;15.50;13.50;10.00
72307;PMS5003;60257;42.638;23.376;2023-07-29T06:01:34;16.75;16.75;11.00
72307;PMS5003;60257;42.638;23.376;2023-07-29T06:04:00;17.25;15.25;10.75
72307;PMS5003;60257;42.638;23.376;2023-07-29T06:06:25;16.00;15.00;10.25
72307;PMS5003;60257;42.638;23.376;2023-07-29T06:08:51;17.75;17.75;10.00
72307;PMS5003;60257;42.638;23.376;2023-07-29T06:11:16;16.00;15.00;10.25
72307;PMS5003;60257;42.638;23.376;2023-07-29T06:13:42;15.00;15.00;11.50
72307;PMS5003;60257;42.638;23.376;2023-07-29T06:16:07;19.75;16.25;12.25
72307;PMS5003;60257;42.638;23.376;2023-07-29T06:18:33;17.75;14.25;10.50
72307;PMS5003;60257;42.638;23.376;2023-07-29T06:20:58;15.00;15.00;10.75
72307;PMS5003;60257;42.638;23.376;2023-07-29T06:23:24;13.75;13.75;10.25
72307;PMS5003;60257;42.638;23.376;2023-07-29T06:25:49;17.25;17.25;11.25
72307;PMS5003;60257;42.638;23.376;2023-07-29T06:28:15;16.00;16.00;11.25
72307;PMS5003;60257;42.638;23.376;2023-07-29T06:30:40;12.25;10.75;7.50
72307;PMS5003;60257;42.638;23.376;2023-07-29T06:33:05;12.25;12.25;9.25
72307;PMS5003;60257;42.638;23.376;2023-07-29T06:35:31;13.25;12.00;8.25
72307;PMS5003;60257;42.638;23.376;2023-07-29T06:37:56;15.00;14.00;9.25
72307;PMS5003;60257;42.638;23.376;2023-07-29T06:40:22;15.00;14.25;10.00
72307;PMS5003;60257;42.638;23.376;2023-07-29T06:42:47;10.50;10.50;6.50
72307;PMS5003;60257;42.638;23.376;2023-07-29T06:45:13;10.75;10.75;7.75
72307;PMS5003;60257;42.638;23.376;2023-07-29T06:47:40;13.50;13.50;10.25
72307;PMS5003;60257;42.638;23.376;2023-07-29T06:50:06;12.25;12.25;9.00
72307;PMS5003;60257;42.638;23.376;2023-07-29T06:52:32;12.75;12.75;8.00
72307;PMS5003;60257;42.638;23.376;2023-07-29T06:54:57;11.75;11.75;8.00
72307;PMS5003;60257;42.638;23.376;2023-07-29T06:57:22;12.25;11.75;8.25
72307;PMS5003;60257;42.638;23.376;2023-07-29T06:59:48;13.00;13.00;9.25
72307;PMS5003;60257;42.638;23.376;2023-07-29T07:02:13;18.25;16.75;11.50
72307;PMS5003;60257;42.638;23.376;2023-07-29T07:04:39;17.25;15.00;9.75
72307;PMS5003;60257;42.638;23.376;2023-07-29T07:07:04;14.25;14.25;9.50
72307;PMS5003;60257;42.638;23.376;2023-07-29T07:09:30;16.00;15.75;12.00
72307;PMS5003;60257;42.638;23.376;2023-07-29T07:11:55;15.00;14.25;9.00
72307;PMS5003;60257;42.638;23.376;2023-07-29T07:14:21;13.25;11.50;9.00
72307;PMS5003;60257;42.638;23.376;2023-07-29T07:16:46;19.25;15.00;10.50
72307;PMS5003;60257;42.638;23.376;2023-07-29T07:19:12;13.00;13.00;9.25
72307;PMS5003;60257;42.638;23.376;2023-07-29T07:21:37;16.25;16.25;11.50
72307;PMS5003;60257;42.638;23.376;2023-07-29T07:24:03;10.50;9.25;7.00
72307;PMS5003;60257;42.638;23.376;2023-07-29T07:26:28;12.25;9.00;5.00
72307;PMS5003;60257;42.638;23.376;2023-07-29T07:28:54;14.25;14.25;9.75
72307;PMS5003;60257;42.638;23.376;2023-07-29T07:31:19;12.00;12.00;7.75
72307;PMS5003;60257;42.638;23.376;2023-07-29T07:33:45;17.75;15.50;11.25
72307;PMS5003;60257;42.638;23.376;2023-07-29T07:36:10;16.50;15.00;10.75
72307;PMS5003;60257;42.638;23.376;2023-07-29T07:38:35;14.75;14.75;10.25
72307;PMS5003;60257;42.638;23.376;2023-07-29T07:41:01;12.50;12.50;8.75
72307;PMS5003;60257;42.638;23.376;2023-07-29T07:43:27;12.75;12.75;9.00
72307;PMS5003;60257;42.638;23.376;2023-07-29T07:45:59;13.25;13.25;9.00
72307;PMS5003;60257;42.638;23.376;2023-07-29T07:48:26;12.00;11.25;9.00
72307;PMS5003;60257;42.638;23.376;2023-07-29T07:50:52;18.00;16.75;10.75
72307;PMS5003;60257;42.638;23.376;2023-07-29T07:53:18;19.00;14.50;9.50
72307;PMS5003;60257;42.638;23.376;2023-07-29T07:55:45;16.50;14.50;10.00
72307;PMS5003;60257;42.638;23.376;2023-07-29T07:58:10;17.75;16.50;12.25
72307;PMS5003;60257;42.638;23.376;2023-07-29T08:00:36;12.50;11.75;9.50
72307;PMS5003;60257;42.638;23.376;2023-07-29T08:03:01;13.50;13.50;9.00
72307;PMS5003;60257;42.638;23.376;2023-07-29T08:05:27;16.75;15.00;10.00
72307;PMS5003;60257;42.638;23.376;2023-07-29T08:07:52;14.50;14.50;9.25
72307;PMS5003;60257;42.638;23.376;2023-07-29T08:10:18;12.25;11.00;6.00
72307;PMS5003;60257;42.638;23.376;2023-07-29T08:12:43;15.75;15.75;11.00
72307;PMS5003;60257;42.638;23.376;2023-07-29T08:15:09;14.75;14.50;10.00
72307;PMS5003;60257;42.638;23.376;2023-07-29T08:17:34;23.00;22.00;13.50
72307;PMS5003;60257;42.638;23.376;2023-07-29T08:19:59;13.50;13.00;10.00
72307;PMS5003;60257;42.638;23.376;2023-07-29T08:22:25;13.50;13.50;10.25
72307;PMS5003;60257;42.638;23.376;2023-07-29T08:24:50;15.50;14.75;10.25
72307;PMS5003;60257;42.638;23.376;2023-07-29T08:27:16;14.50;14.50;9.75
72307;PMS5003;60257;42.638;23.376;2023-07-29T08:29:41;15.00;15.00;10.25
72307;PMS5003;60257;42.638;23.376;2023-07-29T08:32:09;13.75;13.50;8.75
72307;PMS5003;60257;42.638;23.376;2023-07-29T08:34:34;14.50;14.50;9.50
72307;PMS5003;60257;42.638;23.376;2023-07-29T08:37:00;15.50;13.50;9.25
72307;PMS5003;60257;42.638;23.376;2023-07-29T08:39:25;13.50;12.50;8.50
72307;PMS5003;60257;42.638;23.376;2023-07-29T08:42:11;15.00;15.00;9.75
72307;PMS5003;60257;42.638;23.376;2023-07-29T08:44:43;15.00;15.00;10.25
72307;PMS5003;60257;42.638;23.376;2023-07-29T08:47:10;11.00;11.00;8.00
72307;PMS5003;60257;42.638;23.376;2023-07-29T08:49:38;14.50;14.50;9.00
72307;PMS5003;60257;42.638;23.376;2023-07-29T08:52:04;13.50;13.50;9.25
72307;PMS5003;60257;42.638;23.376;2023-07-29T08:54:31;16.75;13.75;9.00
72307;PMS5003;60257;42.638;23.376;2023-07-29T08:56:57;14.00;14.00;9.50
72307;PMS5003;60257;42.638;23.376;2023-07-29T08:59:23;14.25;13.25;9.75
72307;PMS5003;60257;42.638;23.376;2023-07-29T09:01:50;13.25;13.25;9.25
72307;PMS5003;60257;42.638;23.376;2023-07-29T09:04:20;8.75;8.00;5.00
72307;PMS5003;60257;42.638;23.376;2023-07-29T09:06:46;8.00;8.00;6.00
72307;PMS5003;60257;42.638;23.376;2023-07-29T09:09:15;9.75;9.75;5.75
72307;PMS5003;60257;42.638;23.376;2023-07-29T09:11:40;11.25;11.25;7.00
72307;PMS5003;60257;42.638;23.376;2023-07-29T09:14:06;11.25;11.00;6.75
72307;PMS5003;60257;42.638;23.376;2023-07-29T09:16:31;7.00;6.50;4.50
72307;PMS5003;60257;42.638;23.376;2023-07-29T09:19:01;6.00;6.00;2.75
72307;PMS5003;60257;42.638;23.376;2023-07-29T09:21:28;9.00;9.00;7.00
72307;PMS5003;60257;42.638;23.376;2023-07-29T09:23:54;5.75;5.50;4.25
72307;PMS5003;60257;42.638;23.376;2023-07-29T09:26:23;6.75;6.75;4.25
72307;PMS5003;60257;42.638;23.376;2023-07-29T09:28:51;8.25;7.50;4.75
72307;PMS5003;60257;42.638;23.376;2023-07-29T09:31:19;5.50;5.50;4.50
72307;PMS5003;60257;42.638;23.376;2023-07-29T09:33:46;8.00;8.00;6.00
72307;PMS5003;60257;42.638;23.376;2023-07-29T09:36:11;7.50;6.75;3.25
72307;PMS5003;60257;42.638;23.376;2023-07-29T09:38:37;5.00;5.00;4.00
72307;PMS5003;60257;42.638;23.376;2023-07-29T09:41:03;5.00;5.00;3.00
72307;PMS5003;60257;42.638;23.376;2023-07-29T09:43:29;6.00;5.50;4.00
72307;PMS5003;60257;42.638;23.376;2023-07-29T09:45:59;4.00;4.00;3.00
72307;PMS5003;60257;42.638;23.376;2023-07-29T09:48:32;3.50;3.50;2.50
72307;PMS5003;60257;42.638;23.376;2023-07-29T09:50:59;5.75;5.75;4.00
72307;PMS5003;60257;42.638;23.376;2023-07-29T09:53:25;6.25;6.25;5.00
72307;PMS5003;60257;42.638;23.376;2023-07-29T09:55:50;5.25;5.25;2.75
72307;PMS5003;60257;42.638;23.376;2023-07-29T09:58:27;5.75;5.75;4.00
72307;PMS5003;60257;42.638;23.376;2023-07-29T10:00:53;5.00;5.00;4.00
72307;PMS5003;60257;42.638;23.376;2023-07-29T10:03:19;3.75;3.75;1.00
72307;PMS5003;60257;42.638;23.376;2023-07-29T10:05:46;5.50;5.25;4.75
72307;PMS5003;60257;42.638;23.376;2023-07-29T10:08:12;4.75;4.50;3.75
72307;PMS5003;60257;42.638;23.376;2023-07-29T10:10:39;6.00;6.00;4.75
72307;PMS5003;60257;42.638;23.376;2023-07-29T10:13:09;8.00;7.00;5.25
72307;PMS5003;60257;42.638;23.376;2023-07-29T10:15:35;7.00;5.50;4.00
72307;PMS5003;60257;42.638;23.376;2023-07-29T10:18:01;6.50;4.00;3.00
72307;PMS5003;60257;42.638;23.376;2023-07-29T10:20:29;5.00;3.75;2.00
72307;PMS5003;60257;42.638;23.376;2023-07-29T10:22:57;3.00;3.00;1.00
72307;PMS5003;60257;42.638;23.376;2023-07-29T10:25:25;6.25;6.25;5.00
72307;PMS5003;60257;42.638;23.376;2023-07-29T10:28:04;4.00;4.00;2.75
72307;PMS5003;60257;42.638;23.376;2023-07-29T10:30:31;7.00;4.50;4.00
72307;PMS5003;60257;42.638;23.376;2023-07-29T10:33:03;5.00;5.00;4.00
72307;PMS5003;60257;42.638;23.376;2023-07-29T10:35:32;6.25;6.25;4.00
72307;PMS5003;60257;42.638;23.376;2023-07-29T10:37:59;4.75;4.75;2.75
72307;PMS5003;60257;42.638;23.376;2023-07-29T10:40:25;5.00;5.00;3.00
72307;PMS5003;60257;42.638;23.376;2023-07-29T10:43:06;3.00;3.00;2.00
72307;PMS5003;60257;42.638;23.376;2023-07-29T10:45:37;3.00;3.00;2.00
72307;PMS5003;60257;42.638;23.376;2023-07-29T10:48:10;4.00;4.00;2.00
72307;PMS5003;60257;42.638;23.376;2023-07-29T10:50:37;6.75;5.75;4.00
72307;PMS5003;60257;42.638;23.376;2023-07-29T10:53:02;3.75;2.25;1.25
72307;PMS5003;60257;42.638;23.376;2023-07-29T10:55:35;4.00;2.50;1.75
72307;PMS5003;60257;42.638;23.376;2023-07-29T11:00:40;2.75;2.75;1.75
72307;PMS5003;60257;42.638;23.376;2023-07-29T11:03:07;3.50;3.50;2.25
72307;PMS5003;60257;42.638;23.376;2023-07-29T11:05:43;2.00;2.00;1.00
72307;PMS5003;60257;42.638;23.376;2023-07-29T11:13:25;5.75;5.00;3.00
72307;PMS5003;60257;42.638;23.376;2023-07-29T11:15:51;0.75;0.75;0.25
72307;PMS5003;60257;42.638;23.376;2023-07-29T11:18:18;4.75;3.50;2.00
72307;PMS5003;60257;42.638;23.376;2023-07-29T11:20:46;5.25;4.00;3.00
72307;PMS5003;60257;42.638;23.376;2023-07-29T11:23:13;3.00;3.00;2.00
72307;PMS5003;60257;42.638;23.376;2023-07-29T11:25:38;3.25;3.00;2.00
72307;PMS5003;60257;42.638;23.376;2023-07-29T11:28:04;3.25;3.25;2.00
72307;PMS5003;60257;42.638;23.376;2023-07-29T11:30:30;3.00;3.00;2.00
72307;PMS5003;60257;42.638;23.376;2023-07-29T11:32:56;3.25;3.25;2.00
72307;PMS5003;60257;42.638;23.376;2023-07-29T11:35:23;1.00;1.00;0.25
72307;PMS5003;60257;42.638;23.376;2023-07-29T11:37:50;4.00;4.00;2.50
72307;PMS5003;60257;42.638;23.376;2023-07-29T11:40:20;3.25;3.25;1.00
72307;PMS5003;60257;42.638;23.376;2023-07-29T11:42:47;4.50;4.00;3.25
72307;PMS5003;60257;42.638;23.376;2023-07-29T11:45:17;4.50;4.50;3.00
72307;PMS5003;60257;42.638;23.376;2023-07-29T11:47:44;4.00;4.00;3.00
72307;PMS5003;60257;42.638;23.376;2023-07-29T11:50:11;4.25;4.25;3.25
72307;PMS5003;60257;42.638;23.376;2023-07-29T11:52:44;4.25;3.50;3.25
72307;PMS5003;60257;42.638;23.376;2023-07-29T11:55:12;3.50;3.50;2.50
72307;PMS5003;60257;42.638;23.376;2023-07-29T11:57:39;4.50;4.25;2.00
72307;PMS5003;60257;42.638;23.376;2023-07-29T12:00:07;5.00;5.00;3.00
72307;PMS5003;60257;42.638;23.376;2023-07-29T12:02:41;5.00;5.00;3.00
72307;PMS5003;60257;42.638;23.376;2023-07-29T12:05:11;4.75;4.75;3.75
72307;PMS5003;60257;42.638;23.376;2023-07-29T12:07:38;4.25;4.25;3.00
72307;PMS5003;60257;42.638;23.376;2023-07-29T12:10:05;4.75;4.75;2.75
72307;PMS5003;60257;42.638;23.376;2023-07-29T12:12:31;5.25;5.25;2.25
72307;PMS5003;60257;42.638;23.376;2023-07-29T12:14:57;2.00;2.00;0.75
72307;PMS5003;60257;42.638;23.376;2023-07-29T12:17:22;3.00;2.00;1.00
72307;PMS5003;60257;42.638;23.376;2023-07-29T12:19:48;4.00;4.00;2.00
72307;PMS5003;60257;42.638;23.376;2023-07-29T12:22:17;2.75;2.75;1.75
72307;PMS5003;60257;42.638;23.376;2023-07-29T12:24:44;3.00;3.00;0.00
72307;PMS5003;60257;42.638;23.376;2023-07-29T12:27:13;2.25;2.00;1.00
72307;PMS5003;60257;42.638;23.376;2023-07-29T12:29:41;2.50;2.50;2.00
72307;PMS5003;60257;42.638;23.376;2023-07-29T12:32:07;3.25;3.00;1.00
72307;PMS5003;60257;42.638;23.376;2023-07-29T12:34:32;1.50;1.50;0.25
72307;PMS5003;60257;42.638;23.376;2023-07-29T12:36:58;2.25;2.25;0.75
72307;PMS5003;60257;42.638;23.376;2023-07-29T12:39:25;3.00;3.00;1.50
72307;PMS5003;60257;42.638;23.376;2023-07-29T12:41:52;4.00;3.75;1.75
72307;PMS5003;60257;42.638;23.376;2023-07-29T12:44:20;4.25;4.25;3.25
72307;PMS5003;60257;42.638;23.376;2023-07-29T12:46:48;3.00;3.00;2.00
72307;PMS5003;60257;42.638;23.376;2023-07-29T12:49:13;3.00;3.00;2.00
72307;PMS5003;60257;42.638;23.376;2023-07-29T12:51:39;2.75;2.75;1.25
72307;PMS5003;60257;42.638;23.376;2023-07-29T12:54:04;2.75;2.50;1.25
72307;PMS5003;60257;42.638;23.376;2023-07-29T12:56:30;3.00;3.00;2.00
72307;PMS5003;60257;42.638;23.376;2023-07-29T12:58:57;5.00;3.00;2.00
72307;PMS5003;60257;42.638;23.376;2023-07-29T13:01:23;2.25;2.25;2.00
72307;PMS5003;60257;42.638;23.376;2023-07-29T13:03:49;2.25;2.25;2.00
72307;PMS5003;60257;42.638;23.376;2023-07-29T13:06:14;1.50;0.75;0.25
72307;PMS5003;60257;42.638;23.376;2023-07-29T13:08:41;3.25;3.25;1.75
72307;PMS5003;60257;42.638;23.376;2023-07-29T13:11:07;3.75;3.00;2.00
72307;PMS5003;60257;42.638;23.376;2023-07-29T13:13:32;5.75;4.00;2.75
72307;PMS5003;60257;42.638;23.376;2023-07-29T13:15:58;6.00;4.75;2.75
72307;PMS5003;60257;42.638;23.376;2023-07-29T13:18:24;4.50;3.00;2.00
72307;PMS5003;60257;42.638;23.376;2023-07-29T13:20:50;5.00;5.00;3.25
72307;PMS5003;60257;42.638;23.376;2023-07-29T13:23:15;5.00;5.00;4.00
72307;PMS5003;60257;42.638;23.376;2023-07-29T13:25:41;3.25;2.50;1.00
72307;PMS5003;60257;42.638;23.376;2023-07-29T13:28:07;6.25;6.25;4.75
72307;PMS5003;60257;42.638;23.376;2023-07-29T13:30:33;4.25;4.00;2.25
72307;PMS5003;60257;42.638;23.376;2023-07-29T13:32:59;4.50;4.50;2.75
72307;PMS5003;60257;42.638;23.376;2023-07-29T13:35:24;2.25;2.25;1.25
72307;PMS5003;60257;42.638;23.376;2023-07-29T13:37:50;5.25;4.25;3.00
72307;PMS5003;60257;42.638;23.376;2023-07-29T13:40:16;3.00;3.00;2.00
72307;PMS5003;60257;42.638;23.376;2023-07-29T13:42:41;2.25;2.25;1.50
72307;PMS5003;60257;42.638;23.376;2023-07-29T13:45:07;2.00;2.00;1.00
72307;PMS5003;60257;42.638;23.376;2023-07-29T13:47:33;5.75;5.00;3.75
72307;PMS5003;60257;42.638;23.376;2023-07-29T13:49:59;4.00;4.00;2.50
72307;PMS5003;60257;42.638;23.376;2023-07-29T13:52:24;3.25;3.25;2.00
72307;PMS5003;60257;42.638;23.376;2023-07-29T13:54:50;4.00;4.00;2.25
72307;PMS5003;60257;42.638;23.376;2023-07-29T13:57:15;3.50;3.50;2.50
72307;PMS5003;60257;42.638;23.376;2023-07-29T13:59:41;3.50;3.50;3.25
72307;PMS5003;60257;42.638;23.376;2023-07-29T14:02:06;4.75;4.75;2.50
72307;PMS5003;60257;42.638;23.376;2023-07-29T14:04:32;3.25;2.75;2.00